^^

Nearby METAR Reports

 

EGAC - Belfast Harbour, United Kingdom
Distance from station: W 8mi, 13km
Updated: 20/11/2019 20:20
Mostly cloudy
Mostly cloudy
 Wind from SE
Wind: SE 15 mph , 24 km/h, Gust: 26 mph , 43 km/h
Temperature: 7°C
Wind Chill: 3°C
Dew Point: 4°C
Humidity: 81%
Barometer: 1004 hPa
Clouds: Mostly cloudy
Visibility: 6 miles , 10 km
Cloud details: Mostly cloudy 1128 m
2019/11/20 20:20 EGAC 202020Z AUTO 13013G23KT 9999 BKN037/// 07/04 Q1004
EGAA - Belfast/Aldergro, United Kingdom
Distance from station: W 22mi, 35km
Updated: 20/11/2019 20:20
Mostly cloudy
Mostly cloudy
 Wind from SE
Wind: SE 18 mph , 30 km/h
Temperature: 7°C
Wind Chill: 3°C
Dew Point: 5°C
Humidity: 87%
Barometer: 1003 hPa
Clouds: Mostly cloudy
Visibility: 6 miles , 10 km
Cloud details: Partly cloudy 914 m
Mostly cloudy 1372 m
2019/11/20 20:20 EGAA 202020Z 14016KT 9999 SCT030 BKN045 07/05 Q1003
 
EGNS - Isle Of Man/Rona, United Kingdom
Distance from station: SE 57mi, 91km
Updated: 20/11/2019 20:20
Partly cloudy
Partly cloudy
 Wind from ESE
Wind: ESE 31 mph , 50 km/h
Temperature: 7°C
Wind Chill: 2°C
Dew Point: 3°C
Humidity: 76%
Barometer: 1005 hPa
Clouds: Partly cloudy
Visibility: 6 miles , 10 km
Cloud details: Few Clouds 610 m
Partly cloudy 762 m
2019/11/20 20:20 EGNS 202020Z 12027KT 9999 FEW020 SCT025 07/03 Q1005 NOSIG
EGPK - Prestwick(Civ/Na, United Kingdom
Distance from station: NE 74mi, 119km
Updated: 20/11/2019 20:20
Partly cloudy
Partly cloudy
 Wind from E
Wind: E 6 mph , 9 km/h
Temperature: 5°C
Wind Chill: 3°C
Dew Point: 1°C
Humidity: 76%
Barometer: 1008 hPa
Clouds: Partly cloudy
Visibility: 6 miles , 10 km
Cloud details: Partly cloudy 1067 m
2019/11/20 20:20 EGPK 202020Z 08005KT 9999 SCT035 05/01 Q1008
 
EIDW - Dublin Airport, Ireland
Distance from station: SSW 87mi, 141km
Updated: 20/11/2019 20:00
Mostly cloudy
Mostly cloudy
 Wind from SE
Wind: SE 21 mph , 33 km/h, Gust: 32 mph , 52 km/h
Temperature: 8°C
Wind Chill: 3°C
Dew Point: 3°C
Humidity: 71%
Barometer: 1002 hPa
Clouds: Mostly cloudy
Visibility: 6 miles , 10 km
Cloud details: Few Clouds 457 m
Partly cloudy 671 m
Mostly cloudy 975 m
2019/11/20 20:00 EIDW 202000Z 14018G28KT 9999 FEW015 SCT022 BKN032 08/03 Q1002 NOSIG
EGPF - Glasgow Airport, United Kingdom
Distance from station: NNE 98mi, 158km
Updated: 20/11/2019 20:20
Clear
Clear
 Wind from NE
Wind: NE 12 mph , 19 km/h
Temperature: 4°C
Wind Chill: 0°C
Dew Point: 1°C
Humidity: 81%
Barometer: 1009 hPa
Clouds: Clear
Visibility: 6 miles , 10 km
2019/11/20 20:20 EGPF 202020Z AUTO 05010KT 9999 NCD 04/01 Q1009